Time;durP1;ratioP1;P1;durP2;ratioP2;P2;SDS_P1;SDS_P2;PMS_P1;PMS_P2;Temp;Humidity;BMP_temperature;BMP_pressure;BME280_temperature;BME280_humidity;BME280_pressure;Samples;Min_cycle;Max_cycle;Signal;HPM_P1;HPM_P2
2021/07/18 00:03:09;;;;;;;10.50;4.03;;;19.80;83.70;;;;;;10419683;28;20213;-28
2021/07/18 00:08:31;;;;;;;5.30;3.30;;;19.80;83.70;;;;;;10420293;28;20198;-27
2021/07/18 00:13:54;;;;;;;9.43;4.00;;;19.90;83.90;;;;;;10391555;28;20609;-28
2021/07/18 00:19:17;;;;;;;7.80;3.70;;;19.80;84.20;;;;;;10355512;28;20713;-30
2021/07/18 00:24:39;;;;;;;5.90;3.70;;;19.80;84.00;;;;;;10374754;28;20218;-29
2021/07/18 00:30:01;;;;;;;8.27;3.70;;;19.80;83.90;;;;;;10375092;28;20198;-29
2021/07/18 00:35:25;;;;;;;8.93;3.80;;;19.70;84.10;;;;;;10373071;28;20297;-28
2021/07/18 00:40:49;;;;;;;10.37;3.73;;;19.80;83.80;;;;;;10360013;28;20686;-28
2021/07/18 00:46:11;;;;;;;9.17;3.73;;;19.80;83.70;;;;;;10340167;28;20714;-30
2021/07/18 00:51:35;;;;;;;11.70;3.50;;;19.80;83.70;;;;;;10375504;28;20199;-29
2021/07/18 00:56:57;;;;;;;9.33;3.80;;;19.70;84.20;;;;;;10472137;22;20251;-29
2021/07/18 01:02:19;;;;;;;8.20;3.67;;;19.70;83.90;;;;;;10489864;28;20562;-30
2021/07/18 01:07:43;;;;;;;7.23;3.33;;;19.70;83.60;;;;;;10461367;28;20577;-27
2021/07/18 01:13:05;;;;;;;7.93;3.90;;;19.60;83.50;;;;;;10453826;28;20197;-30
2021/07/18 01:18:28;;;;;;;8.63;3.53;;;19.60;83.80;;;;;;10454818;28;20217;-27
2021/07/18 01:23:52;;;;;;;7.50;3.37;;;19.60;83.90;;;;;;10450148;28;20584;-25
2021/07/18 01:29:14;;;;;;;6.83;3.43;;;19.60;83.90;;;;;;10447517;28;20200;-25
2021/07/18 01:34:36;;;;;;;6.47;2.93;;;19.50;83.80;;;;;;10453479;28;20210;-29
2021/07/18 01:39:59;;;;;;;12.93;3.87;;;19.50;84.10;;;;;;10454008;28;20236;-29
2021/07/18 01:45:22;;;;;;;5.50;2.97;;;19.60;83.80;;;;;;10453622;28;20216;-30
2021/07/18 01:50:44;;;;;;;9.57;3.23;;;19.50;83.60;;;;;;10453379;28;20192;-27
2021/07/18 01:56:07;;;;;;;7.67;3.20;;;19.50;83.80;;;;;;10451836;28;20232;-28
2021/07/18 02:01:31;;;;;;;8.43;3.40;;;19.60;83.50;;;;;;10451997;28;20221;-28
2021/07/18 02:06:53;;;;;;;8.27;2.63;;;19.50;84.00;;;;;;10442992;28;20225;-28
2021/07/18 02:12:16;;;;;;;6.67;3.07;;;19.50;83.70;;;;;;10452047;28;20576;-27
2021/07/18 02:17:39;;;;;;;7.33;3.20;;;19.50;83.80;;;;;;10451509;28;20221;-30
2021/07/18 02:23:01;;;;;;;7.83;3.50;;;19.50;83.50;;;;;;10451583;28;20239;-28
2021/07/18 02:28:24;;;;;;;9.77;3.53;;;19.50;83.80;;;;;;10451750;28;20631;-29
2021/07/18 02:33:46;;;;;;;6.53;3.60;;;19.40;84.10;;;;;;10451328;28;20200;-29
2021/07/18 02:39:08;;;;;;;8.77;3.40;;;19.40;84.00;;;;;;10451998;28;20221;-29
2021/07/18 02:44:32;;;;;;;7.50;3.70;;;19.30;84.60;;;;;;10451166;28;20685;-27
2021/07/18 02:49:54;;;;;;;7.60;3.70;;;19.30;84.80;;;;;;10449786;28;20672;-30
2021/07/18 02:55:17;;;;;;;9.13;4.73;;;19.30;84.80;;;;;;10451266;28;20704;-26
2021/07/18 03:00:40;;;;;;;9.00;4.00;;;19.40;85.00;;;;;;10439513;28;20217;-30
2021/07/18 03:06:02;;;;;;;10.73;4.47;;;19.40;85.20;;;;;;10455542;28;20561;-29
2021/07/18 03:11:24;;;;;;;8.40;5.40;;;19.40;85.50;;;;;;10458312;28;20216;-31
2021/07/18 03:16:48;;;;;;;10.90;6.00;;;19.30;85.50;;;;;;10451184;28;20735;-26
2021/07/18 03:22:10;;;;;;;8.70;6.20;;;19.30;85.70;;;;;;10444146;28;20299;-30
2021/07/18 03:27:32;;;;;;;11.50;5.90;;;19.30;86.00;;;;;;10458546;28;20216;-28
2021/07/18 03:32:56;;;;;;;13.60;6.03;;;19.30;85.90;;;;;;10457668;28;20461;-32
2021/07/18 03:38:18;;;;;;;9.13;5.60;;;19.30;85.80;;;;;;10457980;28;20225;-28
2021/07/18 03:43:40;;;;;;;10.03;5.73;;;19.30;85.70;;;;;;10458293;28;20580;-27
2021/07/18 03:49:04;;;;;;;11.60;6.37;;;19.40;85.60;;;;;;10458328;28;20660;-29
2021/07/18 03:54:26;;;;;;;9.57;5.77;;;19.40;85.50;;;;;;10457094;28;20716;-29
2021/07/18 03:59:48;;;;;;;10.67;5.83;;;19.50;85.50;;;;;;10457542;28;20487;-30
2021/07/18 04:05:13;;;;;;;9.77;5.80;;;19.40;85.80;;;;;;10449253;28;20818;-27
2021/07/18 04:10:35;;;;;;;9.10;6.10;;;19.40;85.80;;;;;;10457740;28;20200;-27
2021/07/18 04:15:57;;;;;;;9.13;5.97;;;19.40;85.70;;;;;;10456368;28;20221;-29
2021/07/18 04:21:21;;;;;;;10.63;6.73;;;19.50;86.10;;;;;;10456519;28;20224;-31
2021/07/18 04:26:43;;;;;;;12.73;7.03;;;19.50;85.80;;;;;;10455578;28;20567;-28
2021/07/18 04:32:06;;;;;;;12.80;6.77;;;19.50;85.60;;;;;;10458156;28;20193;-28
2021/07/18 04:37:29;;;;;;;12.33;7.47;;;19.50;85.80;;;;;;10455152;28;20213;-28
2021/07/18 04:42:52;;;;;;;10.10;7.20;;;19.50;85.90;;;;;;10455390;28;20216;-33
2021/07/18 04:48:14;;;;;;;12.77;7.57;;;19.60;85.80;;;;;;10455427;28;20213;-28
2021/07/18 04:53:37;;;;;;;11.47;6.97;;;19.50;86.00;;;;;;10451720;28;20197;-28
2021/07/18 04:58:59;;;;;;;11.73;7.13;;;19.60;85.80;;;;;;10438301;28;20208;-27
2021/07/18 05:04:21;;;;;;;10.53;7.03;;;19.70;85.80;;;;;;10455369;28;20221;-27
2021/07/18 05:09:44;;;;;;;7.63;5.83;;;19.70;85.50;;;;;;10439748;28;20186;-26
2021/07/18 05:15:08;;;;;;;8.00;5.13;;;19.70;85.60;;;;;;10453820;28;20217;-26
2021/07/18 05:20:30;;;;;;;9.10;5.90;;;19.70;85.60;;;;;;10454179;28;20201;-28
2021/07/18 05:25:53;;;;;;;12.97;5.87;;;19.70;85.30;;;;;;10453165;28;20221;-30
2021/07/18 05:31:15;;;;;;;9.50;5.13;;;19.70;85.50;;;;;;10452314;28;20189;-28
2021/07/18 05:36:37;;;;;;;7.97;4.70;;;19.80;85.20;;;;;;10453978;28;20215;-26
2021/07/18 05:42:02;;;;;;;9.10;4.47;;;19.70;85.30;;;;;;10453034;28;20623;-27
2021/07/18 05:47:25;;;;;;;8.63;4.83;;;19.80;84.60;;;;;;10454218;28;20213;-26
2021/07/18 05:52:47;;;;;;;6.30;4.30;;;19.80;84.20;;;;;;10444360;28;20489;-27
2021/07/18 05:58:10;;;;;;;7.67;4.30;;;19.80;84.30;;;;;;10443628;28;20216;-29
2021/07/18 06:03:33;;;;;;;8.40;4.40;;;19.80;84.30;;;;;;10448778;28;20235;-26
2021/07/18 06:08:55;;;;;;;6.70;3.90;;;19.80;83.60;;;;;;10448207;28;20529;-27
2021/07/18 06:14:18;;;;;;;6.50;3.23;;;19.80;83.50;;;;;;10451655;28;20205;-31
2021/07/18 06:19:41;;;;;;;5.73;3.30;;;19.90;83.50;;;;;;10449134;28;20209;-26
2021/07/18 06:25:04;;;;;;;5.17;3.20;;;20.00;83.30;;;;;;10450688;28;20213;-26
2021/07/18 06:30:28;;;;;;;5.83;3.20;;;19.90;83.10;;;;;;10450346;28;20189;-31
2021/07/18 06:35:50;;;;;;;7.27;3.63;;;19.90;83.80;;;;;;10449818;28;20224;-28
2021/07/18 06:41:12;;;;;;;6.37;3.10;;;19.90;84.10;;;;;;10449769;28;20347;-32
2021/07/18 06:46:36;;;;;;;5.67;3.10;;;20.00;84.40;;;;;;10450746;28;20216;-28
2021/07/18 06:51:58;;;;;;;7.17;2.80;;;20.00;83.20;;;;;;10443699;28;20429;-25
2021/07/18 06:57:20;;;;;;;2.73;2.20;;;20.10;83.10;;;;;;10470143;23;20239;-29
2021/07/18 07:02:44;;;;;;;4.93;2.80;;;20.20;82.90;;;;;;10493512;28;20224;-30
2021/07/18 07:08:06;;;;;;;6.60;3.13;;;20.30;82.20;;;;;;10452357;28;20221;-31
2021/07/18 07:13:29;;;;;;;4.47;2.53;;;20.40;82.00;;;;;;10453170;28;20208;-30
2021/07/18 07:18:53;;;;;;;5.50;2.77;;;20.40;81.90;;;;;;10451534;28;20220;-31
2021/07/18 07:24:15;;;;;;;6.00;2.70;;;20.50;81.80;;;;;;10456178;28;20220;-32
2021/07/18 07:29:37;;;;;;;5.30;2.87;;;20.50;81.80;;;;;;10451295;28;20189;-31
2021/07/18 07:35:01;;;;;;;6.23;2.67;;;20.50;81.50;;;;;;10435839;28;20416;-31
2021/07/18 07:40:24;;;;;;;5.07;2.83;;;20.50;81.60;;;;;;10447379;28;20600;-32
2021/07/18 07:45:46;;;;;;;5.67;2.80;;;20.50;81.40;;;;;;10445073;28;20305;-28
2021/07/18 07:51:10;;;;;;;10.10;2.93;;;20.60;81.40;;;;;;10453981;28;20200;-29
2021/07/18 07:56:32;;;;;;;46.17;4.70;;;20.60;81.40;;;;;;10460529;28;20236;-29
2021/07/18 08:01:54;;;;;;;43.47;5.07;;;20.60;81.60;;;;;;10460605;28;20584;-29
2021/07/18 08:07:18;;;;;;;28.70;4.43;;;20.60;81.60;;;;;;10459330;28;20676;-30
2021/07/18 08:12:40;;;;;;;26.43;3.73;;;20.60;81.50;;;;;;10480082;28;20219;-30
2021/07/18 08:18:03;;;;;;;27.63;4.07;;;20.70;81.50;;;;;;10498758;28;20212;-29
2021/07/18 08:23:27;;;;;;;21.10;4.00;;;20.70;81.40;;;;;;10484436;28;20209;-30
2021/07/18 08:28:49;;;;;;;16.47;3.00;;;20.70;81.60;;;;;;10453077;28;20209;-30
2021/07/18 08:34:12;;;;;;;16.90;3.50;;;20.80;81.40;;;;;;10455454;28;20204;-36
2021/07/18 08:39:35;;;;;;;13.17;3.17;;;20.70;81.50;;;;;;10458550;28;20201;-30
2021/07/18 08:44:58;;;;;;;12.53;3.23;;;20.80;81.40;;;;;;10456966;28;20212;-30
2021/07/18 08:50:20;;;;;;;5.13;2.53;;;20.80;80.80;;;;;;10421025;28;20554;-30
2021/07/18 08:55:44;;;;;;;7.40;2.60;;;20.80;79.70;;;;;;10464544;28;20221;-32
2021/07/18 09:01:06;;;;;;;7.07;2.60;;;20.80;79.80;;;;;;10499551;28;20216;-27
2021/07/18 09:06:41;;;;;;;8.23;2.43;;;20.90;79.40;;;;;;10462987;28;20213;-28
2021/07/18 09:12:07;;;;;;;6.33;2.47;;;20.90;80.50;;;;;;10460650;28;20197;-31
2021/07/18 09:17:34;;;;;;;6.23;2.50;;;20.90;80.70;;;;;;10414358;28;20218;-30
2021/07/18 09:23:10;;;;;;;6.27;2.53;;;20.90;80.90;;;;;;10436004;28;20236;-29
2021/07/18 09:28:35;;;;;;;9.70;2.60;;;20.90;80.80;;;;;;10444972;28;20209;-29
2021/07/18 09:34:19;;;;;;;5.73;2.80;;;20.90;80.80;;;;;;10425401;28;20692;-29
2021/07/18 09:39:47;;;;;;;7.70;2.43;;;20.90;81.10;;;;;;10436157;28;20569;-28
2021/07/18 09:45:18;;;;;;;11.20;3.17;;;21.00;81.10;;;;;;10444604;28;20288;-30
2021/07/18 09:50:41;;;;;;;6.93;2.70;;;21.00;81.60;;;;;;10427359;28;20661;-27
2021/07/18 09:56:08;;;;;;;5.77;2.30;;;21.00;81.90;;;;;;10415860;28;20230;-33
2021/07/18 10:01:33;;;;;;;7.73;2.50;;;21.00;81.20;;;;;;10440237;28;20299;-38
2021/07/18 10:07:06;;;;;;;6.40;2.70;;;21.00;81.10;;;;;;10447756;28;20202;-29
2021/07/18 10:12:28;;;;;;;6.50;2.80;;;21.00;81.10;;;;;;10443228;28;20216;-31
2021/07/18 10:17:53;;;;;;;6.13;2.37;;;21.00;81.30;;;;;;10455204;28;20217;-30
2021/07/18 10:23:17;;;;;;;5.50;2.00;;;21.00;81.60;;;;;;10435357;28;20213;-29
2021/07/18 10:28:40;;;;;;;4.77;2.00;;;21.00;81.40;;;;;;10420675;28;20213;-29
2021/07/18 10:34:06;;;;;;;5.00;2.40;;;21.00;81.60;;;;;;10454832;28;20185;-31
2021/07/18 10:39:33;;;;;;;3.83;2.03;;;21.00;81.70;;;;;;10414945;28;20197;-30
2021/07/18 10:44:55;;;;;;;4.60;2.47;;;21.00;81.90;;;;;;10449351;28;20220;-27
2021/07/18 10:50:19;;;;;;;4.83;2.10;;;21.00;81.90;;;;;;10440087;28;20204;-28
2021/07/18 10:55:41;;;;;;;2.77;1.67;;;21.00;82.10;;;;;;10451648;28;20252;-33
2021/07/18 11:01:03;;;;;;;3.73;1.57;;;21.00;82.00;;;;;;10452941;28;20706;-27
2021/07/18 11:06:28;;;;;;;4.37;1.70;;;21.00;81.80;;;;;;10453890;28;20301;-29
2021/07/18 11:11:53;;;;;;;4.77;2.30;;;21.00;81.90;;;;;;10453927;28;20664;-27
2021/07/18 11:17:25;;;;;;;3.87;1.87;;;21.00;82.00;;;;;;10453613;28;20296;-28
2021/07/18 11:23:04;;;;;;;5.03;1.80;;;21.10;82.00;;;;;;10454035;28;20209;-26
2021/07/18 11:28:50;;;;;;;2.80;2.00;;;21.00;81.80;;;;;;10458255;28;20220;-29
2021/07/18 11:34:23;;;;;;;3.80;2.17;;;21.00;82.00;;;;;;10461420;28;20189;-27
2021/07/18 11:39:47;;;;;;;4.37;1.80;;;21.00;81.90;;;;;;10454536;28;20201;-27
2021/07/18 11:45:11;;;;;;;4.63;1.83;;;21.00;82.20;;;;;;10450548;28;20213;-28
2021/07/18 11:50:33;;;;;;;4.27;2.00;;;21.00;82.20;;;;;;10492079;28;20192;-28
2021/07/18 11:55:57;;;;;;;5.60;1.90;;;21.00;82.30;;;;;;10471460;28;20700;-28
2021/07/18 12:01:22;;;;;;;4.43;2.00;;;21.00;82.20;;;;;;10458945;28;20714;-30
2021/07/18 12:06:45;;;;;;;4.37;1.83;;;21.00;82.30;;;;;;10458598;28;20225;-27
2021/07/18 12:12:11;;;;;;;2.03;1.60;;;21.00;82.40;;;;;;10456999;28;20201;-27
2021/07/18 12:17:33;;;;;;;3.40;1.63;;;21.00;82.50;;;;;;10459509;28;20217;-26
2021/07/18 12:22:55;;;;;;;3.40;1.70;;;21.00;82.10;;;;;;10436040;28;20639;-26
2021/07/18 12:28:19;;;;;;;4.03;1.87;;;21.00;82.30;;;;;;10435363;28;20600;-28
2021/07/18 12:33:41;;;;;;;6.27;2.33;;;21.10;82.40;;;;;;10443028;28;20194;-28
2021/07/18 12:39:14;;;;;;;3.17;1.73;;;21.10;82.40;;;;;;10424282;28;20209;-29
2021/07/18 12:44:46;;;;;;;2.67;1.90;;;21.00;82.30;;;;;;10440512;28;20787;-29
2021/07/18 12:50:18;;;;;;;4.60;2.00;;;21.00;82.40;;;;;;10433169;28;20685;-28
2021/07/18 12:55:43;;;;;;;2.03;1.73;;;21.00;82.00;;;;;;10463216;28;20248;-28
2021/07/18 13:01:09;;;;;;;3.57;2.00;;;21.10;82.30;;;;;;10459699;28;20224;-27
2021/07/18 13:06:40;;;;;;;3.30;1.80;;;21.10;81.80;;;;;;10465821;28;20220;-28
2021/07/18 13:12:02;;;;;;;3.97;1.80;;;21.10;82.00;;;;;;10456617;28;20244;-27
2021/07/18 13:17:27;;;;;;;3.23;1.80;;;21.10;82.10;;;;;;10418187;28;20225;-26
2021/07/18 13:22:49;;;;;;;3.83;1.67;;;21.10;82.10;;;;;;10465577;28;20209;-25
2021/07/18 13:28:12;;;;;;;5.43;1.77;;;21.10;81.80;;;;;;10472558;22;20304;-22
2021/07/18 13:33:35;;;;;;;2.67;1.70;;;21.10;81.50;;;;;;10424995;28;20569;-23
2021/07/18 13:39:07;;;;;;;2.50;1.40;;;21.10;81.40;;;;;;10411471;28;20201;-22
2021/07/18 13:44:29;;;;;;;3.60;1.90;;;21.10;81.30;;;;;;10415079;28;20212;-21
2021/07/18 13:49:53;;;;;;;4.83;2.20;;;21.10;81.20;;;;;;10439869;28;20196;-22
2021/07/18 13:55:15;;;;;;;3.03;1.87;;;21.10;81.40;;;;;;10420732;28;20208;-22
2021/07/18 14:00:39;;;;;;;3.77;1.70;;;21.10;81.30;;;;;;10437177;28;20292;-21
2021/07/18 14:06:03;;;;;;;2.77;1.50;;;21.10;81.50;;;;;;10417621;28;20359;-22
2021/07/18 14:11:25;;;;;;;2.73;1.33;;;21.10;80.70;;;;;;10390251;28;20197;-23
2021/07/18 14:16:47;;;;;;;5.70;1.70;;;21.00;80.40;;;;;;10372267;28;20693;-23
2021/07/18 14:22:10;;;;;;;4.93;1.40;;;21.10;79.40;;;;;;10383222;28;20288;-22
2021/07/18 14:27:32;;;;;;;3.20;1.40;;;21.20;78.90;;;;;;10387774;28;20212;-22
2021/07/18 14:32:55;;;;;;;2.37;1.40;;;21.20;78.50;;;;;;10417605;28;20205;-22
2021/07/18 14:38:18;;;;;;;2.77;1.60;;;21.20;79.40;;;;;;10403036;28;20636;-21
2021/07/18 14:43:41;;;;;;;4.27;1.50;;;21.20;79.60;;;;;;10409973;28;20616;-22
2021/07/18 14:49:03;;;;;;;2.57;1.43;;;21.20;79.80;;;;;;10435403;28;20205;-22
2021/07/18 14:54:26;;;;;;;3.63;1.20;;;21.20;80.40;;;;;;10427883;28;20221;-24
2021/07/18 14:59:48;;;;;;;2.93;1.40;;;21.10;80.40;;;;;;10408366;28;20193;-22
2021/07/18 15:05:12;;;;;;;3.83;1.57;;;21.10;80.40;;;;;;10436307;28;20235;-23
2021/07/18 15:10:36;;;;;;;3.53;1.57;;;21.10;80.10;;;;;;10485744;28;20196;-22
2021/07/18 15:15:58;;;;;;;3.13;1.70;;;21.10;80.40;;;;;;10410890;28;20217;-23
2021/07/18 15:21:20;;;;;;;2.37;1.30;;;21.10;80.40;;;;;;10434544;28;20215;-23
2021/07/18 15:26:44;;;;;;;1.50;1.40;;;21.10;80.90;;;;;;10433475;28;20259;-22
2021/07/18 15:32:06;;;;;;;4.23;1.50;;;21.10;80.70;;;;;;10450479;28;20572;-22
2021/07/18 15:37:28;;;;;;;3.13;1.70;;;21.10;80.70;;;;;;10446836;28;20221;-23
2021/07/18 15:42:52;;;;;;;3.67;1.80;;;21.10;80.80;;;;;;10449505;28;20565;-21
2021/07/18 15:48:15;;;;;;;3.57;1.40;;;21.10;81.30;;;;;;10448455;28;20283;-23
2021/07/18 15:53:37;;;;;;;2.07;1.57;;;21.10;80.70;;;;;;10450001;28;20193;-23
2021/07/18 15:59:00;;;;;;;1.90;1.40;;;21.10;81.20;;;;;;10450944;28;20200;-23
2021/07/18 16:04:23;;;;;;;4.17;1.90;;;21.20;80.80;;;;;;10439658;28;20213;-22
2021/07/18 16:09:45;;;;;;;6.30;2.00;;;21.10;81.40;;;;;;10426271;28;20213;-22
2021/07/18 16:15:11;;;;;;;3.23;1.77;;;21.20;81.20;;;;;;10455614;28;20553;-25
2021/07/18 16:20:33;;;;;;;5.80;1.97;;;21.20;80.90;;;;;;10454889;28;20197;-23
2021/07/18 16:25:57;;;;;;;7.23;2.33;;;21.20;80.80;;;;;;10454145;28;20224;-24
2021/07/18 16:31:21;;;;;;;3.70;1.97;;;21.30;80.70;;;;;;10457042;28;20721;-23
2021/07/18 16:36:43;;;;;;;5.17;2.10;;;21.30;80.50;;;;;;10455562;28;20223;-25
2021/07/18 16:42:05;;;;;;;3.23;1.97;;;21.20;80.70;;;;;;10454479;28;20228;-25
2021/07/18 16:47:29;;;;;;;2.83;1.80;;;21.20;80.80;;;;;;10466255;28;20213;-24
2021/07/18 16:52:51;;;;;;;4.60;2.37;;;21.30;80.70;;;;;;10450830;28;20874;-23
2021/07/18 16:58:13;;;;;;;5.57;2.27;;;21.20;80.90;;;;;;10448086;28;20227;-23
2021/07/18 17:03:36;;;;;;;8.17;2.40;;;21.20;80.40;;;;;;10446855;28;20578;-23
2021/07/18 17:08:58;;;;;;;5.20;2.57;;;21.30;79.90;;;;;;10454760;28;20212;-25
2021/07/18 17:14:20;;;;;;;3.67;2.40;;;21.30;79.90;;;;;;10451531;28;20201;-23
2021/07/18 17:19:44;;;;;;;3.57;2.30;;;21.30;79.70;;;;;;10446689;28;20189;-23
2021/07/18 17:25:07;;;;;;;5.87;2.37;;;21.30;80.30;;;;;;10486484;28;20217;-23
2021/07/18 17:30:30;;;;;;;6.80;2.60;;;21.30;80.10;;;;;;10447868;28;20193;-23
2021/07/18 17:35:53;;;;;;;13.70;2.20;;;21.30;80.40;;;;;;10451869;28;20216;-24
2021/07/18 17:41:17;;;;;;;4.97;2.17;;;21.30;79.80;;;;;;10454256;28;20197;-25
2021/07/18 17:46:39;;;;;;;4.60;1.80;;;21.30;80.00;;;;;;10451790;28;20227;-25
2021/07/18 17:52:04;;;;;;;4.13;2.30;;;21.30;79.50;;;;;;10452789;28;20328;-24
2021/07/18 17:57:26;;;;;;;2.13;1.80;;;21.30;79.80;;;;;;10447469;28;20343;-24
2021/07/18 18:02:48;;;;;;;8.70;2.63;;;21.30;79.40;;;;;;10441623;28;20221;-24
2021/07/18 18:08:11;;;;;;;4.97;2.40;;;21.30;79.90;;;;;;10451240;28;20224;-24
2021/07/18 18:13:34;;;;;;;5.80;2.43;;;21.30;79.90;;;;;;10443625;28;20189;-23
2021/07/18 18:18:56;;;;;;;5.37;2.10;;;21.30;78.80;;;;;;10451946;28;20851;-22
2021/07/18 18:24:20;;;;;;;5.27;2.83;;;21.30;78.70;;;;;;10452628;28;20217;-23
2021/07/18 18:29:42;;;;;;;6.70;2.77;;;21.30;78.60;;;;;;10448469;28;20185;-23
2021/07/18 18:35:07;;;;;;;7.43;3.00;;;21.30;77.80;;;;;;10450598;28;20209;-24
2021/07/18 18:40:31;;;;;;;5.93;2.87;;;21.20;77.40;;;;;;10442842;28;20189;-23
2021/07/18 18:45:55;;;;;;;6.67;3.20;;;21.20;76.60;;;;;;10451980;28;20224;-23
2021/07/18 18:51:18;;;;;;;4.43;2.70;;;21.10;75.80;;;;;;10444284;28;20186;-23
2021/07/18 18:56:44;;;;;;;4.70;3.33;;;21.10;75.50;;;;;;10448617;28;20216;-24
2021/07/18 19:02:06;;;;;;;6.67;3.47;;;21.10;75.10;;;;;;10449171;28;20822;-23
2021/07/18 19:07:28;;;;;;;8.30;3.37;;;21.00;74.60;;;;;;10441351;28;20684;-24
2021/07/18 19:12:51;;;;;;;7.73;4.27;;;21.00;74.90;;;;;;10469025;28;20253;-24
2021/07/18 19:18:14;;;;;;;6.17;4.30;;;21.00;74.60;;;;;;10472463;28;20574;-23
2021/07/18 19:23:36;;;;;;;10.33;4.13;;;20.90;74.70;;;;;;10464999;28;20208;-23
2021/07/18 19:28:59;;;;;;;6.97;4.07;;;20.90;74.90;;;;;;10450932;28;20201;-23
2021/07/18 19:34:21;;;;;;;9.33;4.47;;;20.90;74.70;;;;;;10450416;28;20213;-22
2021/07/18 19:39:43;;;;;;;7.80;4.30;;;20.80;74.20;;;;;;10432756;28;20197;-25
2021/07/18 19:45:08;;;;;;;8.50;4.70;;;20.80;73.00;;;;;;10471500;28;20587;-23
2021/07/18 19:50:30;;;;;;;9.03;4.40;;;20.80;73.20;;;;;;10499288;28;20618;-22
2021/07/18 19:55:52;;;;;;;9.73;4.10;;;20.70;72.50;;;;;;10470877;28;20217;-22
2021/07/18 20:01:18;;;;;;;6.30;4.40;;;20.60;72.70;;;;;;10445088;28;20193;-23
2021/07/18 20:06:40;;;;;;;6.53;5.10;;;20.60;71.30;;;;;;10436111;28;20217;-23
2021/07/18 20:12:02;;;;;;;9.43;5.20;;;20.50;71.10;;;;;;10469826;22;20236;-28
2021/07/18 20:17:26;;;;;;;9.33;4.97;;;20.50;71.10;;;;;;10487364;28;20201;-28
2021/07/18 20:22:48;;;;;;;6.07;4.50;;;20.40;71.80;;;;;;10485225;28;20244;-28
2021/07/18 20:28:10;;;;;;;9.10;4.63;;;20.40;71.00;;;;;;10445781;28;20200;-30
2021/07/18 20:33:35;;;;;;;7.83;4.67;;;20.30;69.90;;;;;;10464580;28;20212;-29
2021/07/18 20:38:57;;;;;;;8.30;3.87;;;20.30;68.40;;;;;;10481124;28;20575;-28
2021/07/18 20:44:19;;;;;;;6.70;4.03;;;20.20;68.30;;;;;;10458027;28;20255;-29
2021/07/18 20:49:44;;;;;;;8.77;4.87;;;20.10;67.50;;;;;;10450962;28;20201;-30
2021/07/18 20:55:07;;;;;;;7.17;3.90;;;20.10;67.70;;;;;;10440752;28;20695;-29
2021/07/18 21:00:29;;;;;;;7.90;3.77;;;20.00;68.10;;;;;;10422676;28;20193;-30
2021/07/18 21:05:53;;;;;;;8.43;3.90;;;20.00;67.70;;;;;;10452736;28;20225;-29
2021/07/18 21:11:15;;;;;;;12.10;4.40;;;20.00;67.70;;;;;;10443710;28;20222;-30
2021/07/18 21:16:37;;;;;;;7.83;3.83;;;19.90;67.70;;;;;;10431811;28;20264;-32
2021/07/18 21:22:00;;;;;;;9.30;4.30;;;19.90;67.70;;;;;;10462971;28;20220;-28
2021/07/18 21:27:27;;;;;;;8.67;4.70;;;19.90;68.10;;;;;;10497405;28;20197;-27
2021/07/18 21:32:49;;;;;;;8.47;4.20;;;19.90;67.40;;;;;;10483441;28;20296;-27
2021/07/18 21:38:12;;;;;;;8.63;4.80;;;19.90;67.20;;;;;;10433146;28;20549;-27
2021/07/18 21:43:34;;;;;;;7.67;4.17;;;19.90;66.80;;;;;;10444731;28;20576;-30
2021/07/18 21:48:57;;;;;;;10.00;4.17;;;19.90;66.70;;;;;;10455527;28;20193;-28
2021/07/18 21:54:21;;;;;;;10.80;4.50;;;19.80;67.70;;;;;;10460410;28;20220;-28
2021/07/18 21:59:43;;;;;;;8.47;4.67;;;19.80;67.40;;;;;;10445954;28;20677;-30
2021/07/18 22:05:07;;;;;;;6.97;4.40;;;19.80;67.30;;;;;;10456410;28;20758;-28
2021/07/18 22:10:35;;;;;;;12.60;5.10;;;19.80;67.30;;;;;;10431613;28;20657;-28
2021/07/18 22:15:58;;;;;;;7.87;4.50;;;19.70;67.40;;;;;;10412981;28;20189;-28
2021/07/18 22:21:20;;;;;;;7.77;4.13;;;19.70;67.70;;;;;;10438369;28;20216;-26
2021/07/18 22:26:43;;;;;;;8.97;4.47;;;19.60;68.00;;;;;;10425066;28;20217;-26
2021/07/18 22:32:06;;;;;;;8.13;5.13;;;19.60;68.20;;;;;;10447754;28;20216;-27
2021/07/18 22:37:28;;;;;;;10.93;4.50;;;19.60;68.20;;;;;;10444899;28;20200;-28
2021/07/18 22:42:52;;;;;;;10.37;4.90;;;19.50;68.70;;;;;;10435195;28;20244;-30
2021/07/18 22:48:14;;;;;;;12.20;4.80;;;19.50;69.30;;;;;;10445084;28;20569;-30
2021/07/18 22:53:36;;;;;;;9.80;4.40;;;19.50;69.40;;;;;;10465533;28;20212;-30
2021/07/18 22:59:00;;;;;;;8.00;4.13;;;19.50;69.40;;;;;;10412433;28;20198;-30
2021/07/18 23:04:22;;;;;;;10.97;4.50;;;19.40;69.60;;;;;;10417201;28;20592;-28
2021/07/18 23:09:44;;;;;;;14.53;5.03;;;19.50;69.60;;;;;;10458101;28;20577;-29
2021/07/18 23:15:10;;;;;;;7.67;3.97;;;19.40;70.30;;;;;;10410123;28;20727;-29
2021/07/18 23:20:32;;;;;;;6.63;4.10;;;19.40;70.00;;;;;;10435024;28;20192;-31
2021/07/18 23:25:56;;;;;;;11.43;4.80;;;19.40;70.10;;;;;;10463861;28;20228;-27
2021/07/18 23:31:20;;;;;;;8.27;4.20;;;19.50;70.20;;;;;;10444457;28;20692;-28
2021/07/18 23:36:42;;;;;;;9.27;4.03;;;19.50;70.10;;;;;;10447070;28;20688;-28
2021/07/18 23:42:04;;;;;;;7.23;3.70;;;19.60;70.50;;;;;;10419605;28;20221;-28
2021/07/18 23:47:28;;;;;;;9.57;4.50;;;19.40;70.90;;;;;;10420326;28;20200;-27
2021/07/18 23:52:50;;;;;;;11.30;4.77;;;19.30;70.90;;;;;;10455071;28;20683;-28
2021/07/18 23:58:12;;;;;;;9.60;4.40;;;19.30;70.90;;;;;;10452390;28;20248;-28
